หน้าหลัก
ดาวเทียมภาพ พยากรณ์อากาศ 15 วันภูมิอากาศพยากรณ์อากาศเพื่อการเดินเรือ พายุไซโคลน ฟ้าแลบ ท่าอากาศยานความคิดเห็น จดหมายข่าว เกี่ยวกับ
สภาพอากาศ : ทวีปยุโรป ทวีปแอฟริกา ทวีปอเมริกาเหนือ ทวีปอเมริกาใต้ ทวีปเอเชีย ประเทศออสเตรเลีย-โอเชียเนีย คนอื่นๆ
ภาษา ติดต่อ

ซิดนีย์, ประเทศออสเตรเลีย

ละติจูด: 33-57S, ลองจิจูด: 151-11E, สูง: 6 m


METAR: YSSY 241230Z 29006KT CAVOK 14/09 Q1020 NOSIG
short-TAF: หายไป
long-TAF: YSSY 241107Z 2412/2518 31010KT CAVOK

เวลา: 22:59 (12:59 UTC)

การสังเกตสภาพอากาศปัจจุบัน

รายงานได้ทำ 29 นาทีที่แล้ววันที่ 12:30 UTC  
ลม 06 นอต จาก ตะวันตก/ตะวันตกเฉียงเหนือ
อุณหภูมิ 14°C
ความชื้น 72%
ความกดอากาศ 1020 hPa
ทัศนวิสัย 10 km หรือมากกว่า
ไม่มีเมฆต่ำกว่า 1,500 เมตรและไม่ คิวมูโลนิมบัส

เปลี่ยนหน่วย

การพยากรณ์

รายงานได้ทำ 1 ชั่วโมง และการ 26 นาทีที่แล้ววันที่ 11:33 UTC  
การพยากรณ์ที่ถูกต้องจาก 24 ที่ 12 UTC ที่ 25 ที่ 18 UTC
ลม 10 นอต จาก ตะวันตกเฉียงเหนือ
ทัศนวิสัย 10 km หรือมากกว่า
ไม่มีเมฆต่ำกว่า 1,500 เมตรและไม่ คิวมูโลนิมบัส
ข้อมูลในเว็บไซต์นี้อาจมีการ ปฏิเสธ
สภาพอากาศ : ทวีปยุโรป ทวีปแอฟริกา ทวีปอเมริกาเหนือ ทวีปอเมริกาใต้ ทวีปเอเชีย ประเทศออสเตรเลีย-โอเชียเนีย คนอื่นๆ
ดาวเทียมภาพ พยากรณ์อากาศ 15 วันภูมิอากาศพยากรณ์อากาศเพื่อการเดินเรือ พายุไซโคลน ฟ้าแลบ ท่าอากาศยานความคิดเห็น ภาษา ติดต่อ จดหมายข่าว เกี่ยวกับ